createdAt,value
2019-01-20T00:00:25.276Z,31.00
2019-01-20T00:02:51.470Z,31.50
2019-01-20T00:05:17.919Z,30.23
2019-01-20T00:07:44.079Z,29.10
2019-01-20T00:10:11.861Z,31.07
2019-01-20T00:12:38.007Z,30.03
2019-01-20T00:15:07.770Z,32.33
2019-01-20T00:17:34.056Z,30.53
2019-01-20T00:20:00.250Z,31.57
2019-01-20T00:22:26.372Z,31.23
2019-01-20T00:24:52.669Z,33.13
2019-01-20T00:27:18.821Z,40.17
2019-01-20T00:29:44.981Z,33.57
2019-01-20T00:32:11.263Z,34.70
2019-01-20T00:34:37.424Z,34.00
2019-01-20T00:37:03.576Z,31.97
2019-01-20T00:39:29.752Z,32.87
2019-01-20T00:41:55.908Z,32.03
2019-01-20T00:44:22.081Z,34.60
2019-01-20T00:46:48.450Z,31.70
2019-01-20T00:49:14.708Z,35.10
2019-01-20T00:51:40.981Z,31.30
2019-01-20T00:54:07.479Z,37.23
2019-01-20T00:56:33.638Z,33.77
2019-01-20T00:58:59.788Z,33.13
2019-01-20T01:01:25.974Z,32.33
2019-01-20T01:03:52.130Z,32.47
2019-01-20T01:06:19.993Z,31.87
2019-01-20T01:08:46.185Z,31.73
2019-01-20T01:11:12.341Z,30.27
2019-01-20T01:13:38.609Z,32.07
2019-01-20T01:16:04.802Z,32.63
2019-01-20T01:18:31.047Z,31.53
2019-01-20T01:20:57.205Z,31.97
2019-01-20T01:23:23.503Z,30.67
2019-01-20T01:25:49.710Z,28.73
2019-01-20T01:28:15.864Z,30.47
2019-01-20T01:30:42.148Z,31.60
2019-01-20T01:33:08.420Z,29.10
2019-01-20T01:35:34.677Z,26.93
2019-01-20T01:38:00.863Z,28.27
2019-01-20T01:40:27.021Z,27.37
2019-01-20T01:42:53.178Z,27.00
2019-01-20T01:45:19.667Z,29.00
2019-01-20T01:47:45.936Z,29.87
2019-01-20T01:50:13.690Z,29.20
2019-01-20T01:52:39.893Z,30.33
2019-01-20T01:55:07.954Z,30.40
2019-01-20T01:57:34.100Z,28.13
2019-01-20T02:00:00.390Z,28.87
2019-01-20T02:02:26.665Z,30.30
2019-01-20T02:04:52.923Z,29.00
2019-01-20T02:07:19.111Z,29.53
2019-01-20T02:09:45.367Z,28.87
2019-01-20T02:12:11.521Z,29.20
2019-01-20T02:14:37.700Z,28.57
2019-01-20T02:17:03.954Z,28.90
2019-01-20T02:19:30.111Z,34.20
2019-01-20T02:21:56.307Z,30.53
2019-01-20T02:24:22.488Z,33.20
2019-01-20T02:26:48.742Z,30.73
2019-01-20T02:29:14.927Z,29.73
2019-01-20T02:31:41.185Z,29.73
2019-01-20T02:34:07.352Z,29.33
2019-01-20T02:36:33.539Z,32.97
2019-01-20T02:38:59.692Z,31.43
2019-01-20T02:41:25.860Z,33.43
2019-01-20T02:43:52.050Z,32.77
2019-01-20T02:46:18.211Z,31.27
2019-01-20T02:48:44.430Z,33.93
2019-01-20T02:51:10.596Z,32.87
2019-01-20T02:53:36.755Z,31.77
2019-01-20T02:56:03.499Z,29.47
2019-01-20T02:58:29.682Z,30.57
2019-01-20T03:00:55.843Z,34.50
2019-01-20T03:03:22.004Z,35.03
2019-01-20T03:05:48.188Z,34.63
2019-01-20T03:08:14.352Z,34.33
2019-01-20T03:10:40.503Z,34.13
2019-01-20T03:13:06.688Z,34.70
2019-01-20T03:15:32.847Z,35.13
2019-01-20T03:17:59.009Z,35.70
2019-01-20T03:20:25.199Z,36.03
2019-01-20T03:22:51.563Z,35.77
2019-01-20T03:25:18.426Z,34.73
2019-01-20T03:27:44.601Z,31.83
2019-01-20T03:30:16.646Z,33.93
2019-01-20T03:32:42.787Z,28.03
2019-01-20T03:35:10.380Z,34.40
2019-01-20T03:37:36.529Z,31.17
2019-01-20T03:40:06.187Z,33.27
2019-01-20T03:42:32.373Z,35.40
2019-01-20T03:44:58.527Z,34.80
2019-01-20T03:47:24.683Z,30.40
2019-01-20T03:49:51.065Z,34.37
2019-01-20T03:52:17.219Z,33.77
2019-01-20T03:54:43.367Z,37.07
2019-01-20T03:57:09.661Z,38.03
2019-01-20T03:59:35.821Z,36.63
2019-01-20T04:02:01.971Z,38.33
2019-01-20T04:04:28.153Z,37.93
2019-01-20T04:06:54.308Z,37.87
2019-01-20T04:09:20.463Z,37.93
2019-01-20T04:11:46.648Z,38.80
2019-01-20T04:14:12.798Z,39.23
2019-01-20T04:16:38.949Z,37.23
2019-01-20T04:19:05.127Z,39.10
2019-01-20T04:21:31.291Z,39.57
2019-01-20T04:23:57.444Z,43.07
2019-01-20T04:26:23.624Z,37.47
2019-01-20T04:28:49.781Z,38.50
2019-01-20T04:31:15.943Z,36.10
2019-01-20T04:33:42.118Z,36.27
2019-01-20T04:36:08.281Z,37.10
2019-01-20T04:38:34.538Z,37.30
2019-01-20T04:41:00.734Z,37.67
2019-01-20T04:43:26.896Z,36.57
2019-01-20T04:45:53.041Z,36.77
2019-01-20T04:48:19.225Z,39.10
2019-01-20T04:50:45.486Z,36.33
2019-01-20T04:53:11.645Z,35.43
2019-01-20T04:55:37.944Z,34.30
2019-01-20T04:58:04.601Z,37.17
2019-01-20T05:00:30.758Z,37.03
2019-01-20T05:02:56.946Z,34.50
2019-01-20T05:05:23.100Z,33.97
2019-01-20T05:07:49.248Z,34.07
2019-01-20T05:10:17.240Z,36.87
2019-01-20T05:12:43.502Z,36.30
2019-01-20T05:15:15.286Z,37.43
2019-01-20T05:17:41.467Z,38.90
2019-01-20T05:20:08.726Z,39.03
2019-01-20T05:22:34.891Z,43.90
2019-01-20T05:25:01.081Z,39.03
2019-01-20T05:27:27.339Z,35.10
2019-01-20T05:29:53.494Z,35.70
2019-01-20T05:32:19.684Z,36.50
2019-01-20T05:34:47.387Z,37.73
2019-01-20T05:37:13.541Z,38.80
2019-01-20T05:39:39.736Z,37.57
2019-01-20T05:42:05.899Z,35.67
2019-01-20T05:44:32.055Z,40.60
2019-01-20T05:46:58.341Z,36.87
2019-01-20T05:49:24.498Z,38.13
2019-01-20T05:51:50.801Z,35.03
2019-01-20T05:54:16.993Z,40.33
2019-01-20T05:56:43.160Z,37.53
2019-01-20T05:59:09.323Z,40.87
2019-01-20T06:01:35.538Z,45.23
2019-01-20T06:04:01.730Z,45.27
2019-01-20T06:06:27.971Z,43.50
2019-01-20T06:08:54.167Z,36.73
2019-01-20T06:11:20.324Z,39.37
2019-01-20T06:13:46.485Z,38.83
2019-01-20T06:16:12.671Z,39.00
2019-01-20T06:18:38.919Z,39.20
2019-01-20T06:21:05.065Z,38.93
2019-01-20T06:23:31.254Z,43.50
2019-01-20T06:25:57.409Z,41.13
2019-01-20T06:28:23.573Z,42.83
2019-01-20T06:30:49.767Z,42.03
2019-01-20T06:33:16.037Z,38.10
2019-01-20T06:35:42.291Z,41.73
2019-01-20T06:38:08.486Z,37.13
2019-01-20T06:40:34.647Z,41.43
2019-01-20T06:43:02.317Z,42.63
2019-01-20T06:45:28.704Z,45.33
2019-01-20T06:47:54.853Z,45.20
2019-01-20T06:50:21.210Z,44.40
2019-01-20T06:52:47.410Z,48.57
2019-01-20T06:55:13.563Z,49.10
2019-01-20T06:57:39.919Z,51.57
2019-01-20T07:00:18.035Z,61.37
2019-01-20T07:02:44.185Z,59.57
2019-01-20T07:05:10.557Z,55.50
2019-01-20T07:07:36.762Z,37.87
2019-01-20T07:10:05.821Z,58.67
2019-01-20T07:12:31.982Z,41.60
2019-01-20T07:14:58.174Z,59.73
2019-01-20T07:17:24.334Z,53.30
2019-01-20T07:19:50.496Z,52.30
2019-01-20T07:22:16.789Z,52.73
2019-01-20T07:24:43.036Z,42.57
2019-01-20T07:27:09.188Z,47.90
2019-01-20T07:29:35.433Z,54.20
2019-01-20T07:32:01.685Z,30.40
2019-01-20T07:34:27.848Z,46.03
2019-01-20T07:36:54.025Z,39.73
2019-01-20T07:39:20.180Z,55.93
2019-01-20T07:41:46.331Z,43.53
2019-01-20T07:44:12.514Z,52.07
2019-01-20T07:46:38.667Z,47.93
2019-01-20T07:49:04.818Z,51.27
2019-01-20T07:51:31.109Z,42.17
2019-01-20T07:53:57.500Z,36.37
2019-01-20T07:56:23.654Z,34.93
2019-01-20T07:58:49.953Z,40.97
2019-01-20T08:01:16.207Z,48.80
2019-01-20T08:03:42.366Z,46.63
2019-01-20T08:06:08.554Z,40.37
2019-01-20T08:08:34.705Z,42.57
2019-01-20T08:11:00.860Z,41.13
2019-01-20T08:13:27.056Z,33.83
2019-01-20T08:15:53.213Z,43.13
2019-01-20T08:18:19.479Z,36.37
2019-01-20T08:20:45.664Z,35.87
2019-01-20T08:23:11.816Z,36.73
2019-01-20T08:25:37.996Z,39.03
2019-01-20T08:28:04.177Z,35.97
2019-01-20T08:30:30.332Z,37.67
2019-01-20T08:32:56.484Z,35.57
2019-01-20T08:35:23.292Z,31.87
2019-01-20T08:37:49.440Z,34.80
2019-01-20T08:40:23.943Z,33.67
2019-01-20T08:42:50.143Z,32.90
2019-01-20T08:45:31.998Z,31.23
2019-01-20T08:48:04.514Z,34.10
2019-01-20T08:50:30.784Z,33.27
2019-01-20T08:52:56.960Z,33.73
2019-01-20T08:55:23.462Z,37.90
2019-01-20T08:57:49.614Z,40.30
2019-01-20T09:00:15.877Z,31.60
2019-01-20T09:02:42.156Z,37.27
2019-01-20T09:05:08.837Z,33.40
2019-01-20T09:07:34.987Z,34.20
2019-01-20T09:10:01.175Z,32.33
2019-01-20T09:12:27.740Z,36.87
2019-01-20T09:14:54.005Z,32.87
2019-01-20T09:17:20.296Z,33.60
2019-01-20T09:19:46.459Z,32.80
2019-01-20T09:22:12.609Z,31.30
2019-01-20T09:24:38.798Z,35.77
2019-01-20T09:27:04.958Z,36.97
2019-01-20T09:29:31.221Z,40.20
2019-01-20T09:31:57.424Z,43.27
2019-01-20T09:34:23.582Z,39.57
2019-01-20T09:36:49.736Z,39.23
2019-01-20T09:39:15.924Z,38.63
2019-01-20T09:41:42.081Z,41.00
2019-01-20T09:44:08.240Z,43.40
2019-01-20T09:46:34.542Z,42.00
2019-01-20T09:49:00.754Z,42.43
2019-01-20T09:51:26.963Z,43.50
2019-01-20T09:53:53.261Z,41.67
2019-01-20T09:56:19.526Z,42.77
2019-01-20T09:58:45.675Z,56.20
2019-01-20T10:01:12.036Z,44.53
2019-01-20T10:03:38.201Z,46.10
2019-01-20T10:06:04.560Z,43.43
2019-01-20T10:08:30.742Z,44.63
2019-01-20T10:10:56.899Z,41.70
2019-01-20T10:13:23.047Z,49.83
2019-01-20T10:15:52.159Z,46.07
2019-01-20T10:18:17.303Z,45.13
2019-01-20T10:20:43.473Z,49.10
2019-01-20T10:23:09.769Z,52.67
2019-01-20T10:25:36.030Z,50.20
2019-01-20T10:28:02.376Z,51.90
2019-01-20T10:30:33.536Z,54.37
2019-01-20T10:32:59.991Z,50.83
2019-01-20T10:35:28.048Z,61.70
2019-01-20T10:37:55.938Z,54.17
2019-01-20T10:40:22.086Z,59.77
2019-01-20T10:42:48.363Z,57.53
2019-01-20T10:45:14.608Z,42.87
2019-01-20T10:47:40.889Z,33.53
2019-01-20T10:50:10.130Z,50.00
2019-01-20T10:52:36.435Z,43.77
2019-01-20T10:55:03.601Z,48.73
2019-01-20T10:57:29.803Z,47.80
2019-01-20T10:59:56.097Z,46.93
2019-01-20T11:02:22.258Z,43.57
2019-01-20T11:04:48.415Z,42.10
2019-01-20T11:07:14.618Z,43.30
2019-01-20T11:09:40.780Z,51.10
2019-01-20T11:12:06.927Z,51.37
2019-01-20T11:14:33.229Z,39.40
2019-01-20T11:16:59.382Z,42.10
2019-01-20T11:19:25.556Z,30.73
2019-01-20T11:21:51.723Z,56.23
2019-01-20T11:24:17.880Z,67.27
2019-01-20T11:26:44.135Z,46.57
2019-01-20T11:29:10.321Z,64.60
2019-01-20T11:31:36.590Z,42.40
2019-01-20T11:34:02.747Z,43.00
2019-01-20T11:36:28.984Z,56.37
2019-01-20T11:38:55.140Z,55.63
2019-01-20T11:41:21.297Z,31.03
2019-01-20T11:43:47.501Z,51.10
2019-01-20T11:46:13.662Z,57.93
2019-01-20T11:48:39.827Z,59.83
2019-01-20T11:51:06.125Z,47.47
2019-01-20T11:53:32.382Z,50.00
2019-01-20T11:55:58.535Z,51.47
2019-01-20T11:58:24.881Z,30.73
2019-01-20T12:00:51.036Z,48.77
2019-01-20T12:03:17.224Z,50.83
2019-01-20T12:05:43.413Z,49.57
2019-01-20T12:08:09.577Z,48.97
2019-01-20T12:10:35.827Z,42.83
2019-01-20T12:13:10.138Z,57.60
2019-01-20T12:15:36.295Z,53.77
2019-01-20T12:18:03.057Z,50.43
2019-01-20T12:20:29.248Z,27.77
2019-01-20T12:22:55.567Z,45.43
2019-01-20T12:25:21.725Z,45.33
2019-01-20T12:27:47.919Z,44.60
2019-01-20T12:30:17.276Z,44.07
2019-01-20T12:32:43.637Z,38.03
2019-01-20T12:35:10.034Z,43.97
2019-01-20T12:37:36.186Z,42.93
2019-01-20T12:40:08.522Z,32.40
2019-01-20T12:42:34.814Z,40.07
2019-01-20T12:45:00.969Z,31.83
2019-01-20T12:47:27.118Z,38.93
2019-01-20T12:49:53.414Z,34.87
2019-01-20T12:52:19.597Z,102.03
2019-01-20T12:54:45.766Z,32.93
2019-01-20T12:57:11.961Z,36.70
2019-01-20T12:59:38.155Z,39.23
2019-01-20T13:02:04.312Z,22.27
2019-01-20T13:04:30.608Z,38.03
2019-01-20T13:06:56.772Z,35.30
2019-01-20T13:09:22.923Z,39.10
2019-01-20T13:11:49.115Z,32.80
2019-01-20T13:14:15.277Z,22.70
2019-01-20T13:16:41.457Z,36.50
2019-01-20T13:19:07.625Z,21.37
2019-01-20T13:21:33.781Z,41.37
2019-01-20T13:24:00.034Z,44.70
2019-01-20T13:26:26.326Z,41.27
2019-01-20T13:28:52.516Z,40.17
2019-01-20T13:31:18.657Z,45.70
2019-01-20T13:33:44.942Z,22.23
2019-01-20T13:36:11.212Z,41.00
2019-01-20T13:38:37.365Z,47.43
2019-01-20T13:41:03.750Z,45.60
2019-01-20T13:43:29.905Z,36.33
2019-01-20T13:45:56.054Z,43.53
2019-01-20T13:48:22.339Z,47.20
2019-01-20T13:50:48.515Z,45.80
2019-01-20T13:53:14.666Z,41.67
2019-01-20T13:55:40.854Z,42.47
2019-01-20T13:58:07.007Z,39.97
2019-01-20T14:00:33.311Z,43.07
2019-01-20T14:02:59.594Z,61.20
2019-01-20T14:05:25.755Z,48.83
2019-01-20T14:07:51.916Z,50.93
2019-01-20T14:10:20.114Z,69.47
2019-01-20T14:12:46.266Z,51.83
2019-01-20T14:15:14.126Z,43.80
2019-01-20T14:17:40.307Z,46.83
2019-01-20T14:20:10.073Z,67.33
2019-01-20T14:22:36.231Z,56.37
2019-01-20T14:25:04.624Z,53.67
2019-01-20T14:27:30.776Z,52.10
2019-01-20T14:29:56.930Z,46.83
2019-01-20T14:32:23.118Z,44.00
2019-01-20T14:34:49.268Z,36.50
2019-01-20T14:37:15.433Z,39.60
2019-01-20T14:39:41.723Z,62.00
2019-01-20T14:42:07.883Z,47.37
2019-01-20T14:44:34.153Z,64.33
2019-01-20T14:47:00.341Z,88.50
2019-01-20T14:49:26.511Z,67.10
2019-01-20T14:51:52.651Z,59.57
2019-01-20T14:54:18.843Z,45.30
2019-01-20T14:56:44.994Z,46.00
2019-01-20T14:59:11.160Z,47.57
2019-01-20T15:01:37.412Z,51.00
2019-01-20T15:04:03.573Z,42.83
2019-01-20T15:06:29.726Z,44.23
2019-01-20T15:08:55.902Z,49.27
2019-01-20T15:11:22.073Z,47.03
2019-01-20T15:13:48.228Z,50.13
2019-01-20T15:16:14.430Z,49.63
2019-01-20T15:18:40.683Z,47.27
2019-01-20T15:21:06.852Z,55.17
2019-01-20T15:23:33.150Z,36.53
2019-01-20T15:25:59.406Z,48.80
2019-01-20T15:28:25.589Z,48.17
2019-01-20T15:30:51.777Z,47.20
2019-01-20T15:33:17.925Z,47.60
2019-01-20T15:35:44.084Z,60.10
2019-01-20T15:38:10.287Z,56.07
2019-01-20T15:40:36.535Z,51.10
2019-01-20T15:43:02.996Z,41.43
2019-01-20T15:45:29.186Z,53.30
2019-01-20T15:47:55.364Z,53.57
2019-01-20T15:50:26.707Z,65.60
2019-01-20T15:52:52.917Z,60.47
2019-01-20T15:55:20.421Z,62.48
2019-01-20T15:57:46.680Z,68.73
2019-01-20T16:00:25.658Z,53.93
2019-01-20T16:02:51.973Z,63.60
2019-01-20T16:05:18.231Z,56.17
2019-01-20T16:07:44.452Z,100.57
2019-01-20T16:10:13.129Z,75.37
2019-01-20T16:12:39.290Z,85.60
2019-01-20T16:15:09.086Z,71.13
2019-01-20T16:17:35.249Z,103.10
2019-01-20T16:20:01.522Z,82.83
2019-01-20T16:22:27.711Z,94.00
2019-01-20T16:24:53.864Z,56.13
2019-01-20T16:27:20.135Z,48.93
2019-01-20T16:29:46.428Z,45.07
2019-01-20T16:32:12.690Z,48.17
2019-01-20T16:34:38.836Z,45.33
2019-01-20T16:37:06.234Z,45.00
2019-01-20T16:39:32.655Z,45.30
2019-01-20T16:41:59.298Z,54.53
2019-01-20T16:44:26.569Z,45.20
2019-01-20T16:46:52.744Z,45.97
2019-01-20T16:49:20.412Z,49.63
2019-01-20T16:51:46.586Z,52.33
2019-01-20T16:54:12.749Z,73.17
2019-01-20T16:56:39.012Z,49.73
2019-01-20T16:59:05.224Z,82.57
2019-01-20T17:01:31.506Z,64.43
2019-01-20T17:03:57.838Z,60.80
2019-01-20T17:06:24.354Z,48.80
2019-01-20T17:08:50.507Z,41.87
2019-01-20T17:11:16.670Z,46.40
2019-01-20T17:13:42.860Z,47.70
2019-01-20T17:16:09.023Z,40.20
2019-01-20T17:18:35.204Z,44.80
2019-01-20T17:21:01.766Z,29.93
2019-01-20T17:23:27.916Z,41.53
2019-01-20T17:25:54.417Z,46.93
2019-01-20T17:28:20.733Z,42.93
2019-01-20T17:30:46.886Z,32.53
2019-01-20T17:33:13.079Z,63.93
2019-01-20T17:35:39.753Z,44.87
2019-01-20T17:38:05.903Z,58.90
2019-01-20T17:40:32.180Z,38.57
2019-01-20T17:42:58.493Z,47.47
2019-01-20T17:45:33.610Z,55.10
2019-01-20T17:48:01.033Z,48.13
2019-01-20T17:50:32.759Z,44.70
2019-01-20T17:52:59.412Z,41.63
2019-01-20T17:55:25.703Z,40.67
2019-01-20T17:57:51.957Z,40.50
2019-01-20T18:00:21.632Z,49.77
2019-01-20T18:02:47.916Z,48.40
2019-01-20T18:05:17.123Z,49.23
2019-01-20T18:07:43.596Z,51.27
2019-01-20T18:10:11.585Z,44.33
2019-01-20T18:12:37.748Z,47.60
2019-01-20T18:15:07.654Z,50.90
2019-01-20T18:17:33.975Z,34.40
2019-01-20T18:20:00.213Z,36.17
2019-01-20T18:22:26.551Z,35.23
2019-01-20T18:24:52.847Z,33.77
2019-01-20T18:27:19.122Z,29.70
2019-01-20T18:29:45.492Z,28.80
2019-01-20T18:32:11.689Z,47.00
2019-01-20T18:34:37.954Z,35.03
2019-01-20T18:37:04.232Z,30.23
2019-01-20T18:39:30.424Z,34.10
2019-01-20T18:41:56.737Z,40.50
2019-01-20T18:44:23.004Z,38.77
2019-01-20T18:46:49.203Z,34.20
2019-01-20T18:49:15.365Z,57.53
2019-01-20T18:51:41.545Z,54.07
2019-01-20T18:54:07.761Z,42.87
2019-01-20T18:56:33.945Z,56.93
2019-01-20T18:59:00.109Z,52.87
2019-01-20T19:01:26.319Z,45.40
2019-01-20T19:03:52.987Z,42.40
2019-01-20T19:06:19.162Z,36.63
2019-01-20T19:08:45.351Z,38.43
2019-01-20T19:11:11.527Z,37.60
2019-01-20T19:13:37.789Z,43.47
2019-01-20T19:16:08.866Z,48.23
2019-01-20T19:18:32.150Z,47.50
2019-01-20T19:20:58.290Z,37.27
2019-01-20T19:23:24.897Z,38.70
2019-01-20T19:25:51.048Z,37.07
2019-01-20T19:28:17.226Z,35.77
2019-01-20T19:30:43.518Z,42.03
2019-01-20T19:33:09.667Z,44.03
2019-01-20T19:35:35.821Z,45.40
2019-01-20T19:38:02.005Z,31.60
2019-01-20T19:40:28.160Z,25.50
2019-01-20T19:42:54.314Z,25.60
2019-01-20T19:45:20.947Z,35.63
2019-01-20T19:47:47.481Z,35.33
2019-01-20T19:50:15.343Z,42.70
2019-01-20T19:52:41.637Z,42.50
2019-01-20T19:55:11.113Z,40.80
2019-01-20T19:57:37.435Z,37.67
2019-01-20T20:00:07.015Z,40.07
2019-01-20T20:02:33.187Z,49.90
2019-01-20T20:04:59.349Z,45.03
2019-01-20T20:07:25.939Z,54.20
2019-01-20T20:09:52.207Z,54.80
2019-01-20T20:12:18.359Z,51.43
2019-01-20T20:14:44.575Z,53.53
2019-01-20T20:17:10.735Z,48.63
2019-01-20T20:19:36.890Z,47.97
2019-01-20T20:22:03.076Z,49.47
2019-01-20T20:24:29.230Z,57.43
2019-01-20T20:26:55.405Z,51.53
2019-01-20T20:29:21.570Z,42.57
2019-01-20T20:31:47.719Z,46.43
2019-01-20T20:34:13.881Z,37.70
2019-01-20T20:36:40.079Z,38.90
2019-01-20T20:39:07.243Z,34.43
2019-01-20T20:41:33.388Z,37.23
2019-01-20T20:43:59.728Z,40.10
2019-01-20T20:46:30.521Z,40.47
2019-01-20T20:48:54.361Z,46.07
2019-01-20T20:51:20.544Z,46.87
2019-01-20T20:53:46.701Z,43.63
2019-01-20T20:56:12.854Z,45.97
2019-01-20T20:58:39.048Z,43.20
2019-01-20T21:01:05.208Z,43.93
2019-01-20T21:03:31.365Z,36.63
2019-01-20T21:05:57.555Z,39.07
2019-01-20T21:08:23.766Z,37.93
2019-01-20T21:10:49.929Z,38.23
2019-01-20T21:13:16.113Z,46.57
2019-01-20T21:15:42.264Z,40.50
2019-01-20T21:18:08.532Z,44.70
2019-01-20T21:20:34.837Z,41.73
2019-01-20T21:23:00.999Z,35.03
2019-01-20T21:25:28.120Z,39.00
2019-01-20T21:27:54.310Z,36.40
2019-01-20T21:30:25.946Z,33.97
2019-01-20T21:32:52.214Z,48.83
2019-01-20T21:35:18.607Z,47.57
2019-01-20T21:37:44.764Z,47.33
2019-01-20T21:40:13.439Z,43.97
2019-01-20T21:42:39.624Z,37.53
2019-01-20T21:45:08.490Z,36.47
2019-01-20T21:47:34.642Z,36.47
2019-01-20T21:50:00.847Z,41.77
2019-01-20T21:52:27.009Z,34.10
2019-01-20T21:54:53.173Z,35.67
2019-01-20T21:57:19.360Z,36.50
2019-01-20T21:59:45.620Z,33.17
2019-01-20T22:02:11.784Z,37.27
2019-01-20T22:04:38.063Z,21.93
2019-01-20T22:07:04.216Z,34.40
2019-01-20T22:09:30.480Z,28.90
2019-01-20T22:11:56.680Z,31.47
2019-01-20T22:14:23.170Z,42.93
2019-01-20T22:16:52.820Z,33.07
2019-01-20T22:19:17.482Z,38.37
2019-01-20T22:21:43.792Z,30.73
2019-01-20T22:24:09.950Z,31.00
2019-01-20T22:26:36.147Z,31.30
2019-01-20T22:29:02.405Z,30.23
2019-01-20T22:31:28.663Z,28.60
2019-01-20T22:33:54.972Z,32.37
2019-01-20T22:36:21.126Z,29.20
2019-01-20T22:38:47.290Z,31.83
2019-01-20T22:41:13.488Z,28.00
2019-01-20T22:43:39.776Z,31.27
2019-01-20T22:46:06.012Z,29.70
2019-01-20T22:48:32.310Z,29.53
2019-01-20T22:50:58.470Z,33.50
2019-01-20T22:53:24.729Z,32.93
2019-01-20T22:55:50.917Z,34.03
2019-01-20T22:58:17.172Z,31.90
2019-01-20T23:00:48.433Z,31.60
2019-01-20T23:03:14.863Z,32.17
2019-01-20T23:05:41.023Z,30.37
2019-01-20T23:08:07.188Z,31.77
2019-01-20T23:10:34.459Z,33.57
2019-01-20T23:13:00.652Z,34.73
2019-01-20T23:15:26.778Z,33.83
2019-01-20T23:17:53.050Z,33.60
2019-01-20T23:20:19.237Z,30.23
2019-01-20T23:22:45.427Z,28.37
2019-01-20T23:25:11.617Z,31.87
2019-01-20T23:27:37.802Z,28.13
2019-01-20T23:30:07.521Z,28.37
2019-01-20T23:32:33.748Z,31.53
2019-01-20T23:35:00.011Z,34.83
2019-01-20T23:37:26.220Z,37.57
2019-01-20T23:39:52.423Z,37.67
2019-01-20T23:42:18.575Z,34.30
2019-01-20T23:44:44.741Z,35.10
2019-01-20T23:47:15.258Z,33.80
2019-01-20T23:49:39.422Z,31.43
2019-01-20T23:52:05.590Z,35.30
2019-01-20T23:54:31.879Z,33.07
2019-01-20T23:56:58.043Z,37.00
2019-01-20T23:59:24.210Z,33.93
